Talcum, Kentucky
Current Conditions -  °F | °C
As of 5:53 AM on Monday 22 Dec 2014 (Local Time) from KJKL Reporting Station
Overcast Overcast  
Wind Chill: 38°   Ceiling: 3800
Heat Index: 41°   Visibility: 10mi
Dew Point: 32°   Wind: 5mph
Humidity: 70%   Direction: 150°SSE
Pressure: 30.01"   Gusts: NA
Location:  37.3318°N, 83.1697°W
Report Text: KJKL 221053Z AUTO 15004KT 10SM OVC038 05/00 A3001 RMK AO2 RAB38E50 SLP169 P0000 T00500000
Loading
Personal Weather Stations






























Interactive Weather Map New forecast layout! Learn more

10-Day Weather Forecast

Advertisements
Track Severe Weather on mobile